createdAt,value
2018-12-17T00:01:21.516Z,98144.08
2018-12-17T00:03:49.971Z,98144.88
2018-12-17T00:06:18.576Z,98140.00
2018-12-17T00:08:47.051Z,98150.70
2018-12-17T00:11:16.275Z,98157.30
2018-12-17T00:13:44.842Z,98154.71
2018-12-17T00:16:13.363Z,98159.38
2018-12-17T00:18:41.823Z,98154.30
2018-12-17T00:21:10.323Z,98152.83
2018-12-17T00:23:38.792Z,98157.05
2018-12-17T00:26:09.532Z,98156.22
2018-12-17T00:28:38.010Z,98164.04
2018-12-17T00:31:06.495Z,98157.48
2018-12-17T00:33:34.939Z,98161.22
2018-12-17T00:36:03.542Z,98162.21
2018-12-17T00:38:31.992Z,98168.05
2018-12-17T00:41:00.482Z,98173.25
2018-12-17T00:43:29.183Z,98171.42
2018-12-17T00:45:57.833Z,98181.42
2018-12-17T00:48:26.442Z,98178.33
2018-12-17T00:50:55.057Z,98180.95
2018-12-17T00:53:23.535Z,98180.98
2018-12-17T00:55:52.037Z,98185.23
2018-12-17T00:58:20.480Z,98193.13
2018-12-17T01:00:48.972Z,98194.00
2018-12-17T01:03:17.458Z,98191.58
2018-12-17T01:05:45.995Z,98185.34
2018-12-17T01:08:14.475Z,98185.39
2018-12-17T01:10:42.963Z,98192.61
2018-12-17T01:13:11.418Z,98193.13
2018-12-17T01:15:39.916Z,98195.73
2018-12-17T01:18:08.412Z,98196.82
2018-12-17T01:20:36.952Z,98193.80
2018-12-17T01:23:05.473Z,98199.32
2018-12-17T01:25:34.212Z,98195.55
2018-12-17T01:28:02.680Z,98193.88
2018-12-17T01:30:31.159Z,98191.94
2018-12-17T01:32:59.624Z,98193.20
2018-12-17T01:35:28.171Z,98197.61
2018-12-17T01:37:56.610Z,98197.97
2018-12-17T01:40:25.117Z,98206.86
2018-12-17T01:42:53.587Z,98207.06
2018-12-17T01:45:22.093Z,98207.06
2018-12-17T01:47:50.556Z,98207.38
2018-12-17T01:50:19.036Z,98206.81
2018-12-17T01:52:47.479Z,98206.86
2018-12-17T01:55:15.935Z,98196.89
2018-12-17T01:57:44.419Z,98203.47
2018-12-17T02:00:12.915Z,98210.41
2018-12-17T02:02:41.438Z,98209.81
2018-12-17T02:05:09.912Z,98207.34
2018-12-17T02:07:38.413Z,98210.77
2018-12-17T02:10:07.039Z,98198.20
2018-12-17T02:12:35.534Z,98201.17
2018-12-17T02:15:04.484Z,98194.45
2018-12-17T02:17:32.993Z,98200.16
2018-12-17T02:20:01.490Z,98195.77
2018-12-17T02:22:29.967Z,98190.88
2018-12-17T02:24:58.420Z,98185.30
2018-12-17T02:27:26.916Z,98184.48
2018-12-17T02:29:55.410Z,98186.80
2018-12-17T02:32:23.888Z,98191.54
2018-12-17T02:34:52.339Z,98193.70
2018-12-17T02:37:20.835Z,98195.69
2018-12-17T02:39:49.318Z,98193.36
2018-12-17T02:42:17.891Z,98186.64
2018-12-17T02:44:46.350Z,98194.21
2018-12-17T02:47:14.858Z,98197.95
2018-12-17T02:49:43.339Z,98192.73
2018-12-17T02:52:11.850Z,98197.82
2018-12-17T02:54:40.810Z,98194.37
2018-12-17T02:57:09.291Z,98200.77
2018-12-17T02:59:37.749Z,98197.50
2018-12-17T03:02:06.252Z,98200.12
2018-12-17T03:04:34.692Z,98199.64
2018-12-17T03:07:03.208Z,98201.27
2018-12-17T03:09:31.658Z,98205.70
2018-12-17T03:12:00.159Z,98196.21
2018-12-17T03:14:28.665Z,98201.30
2018-12-17T03:16:57.150Z,98199.50
2018-12-17T03:19:25.638Z,98207.83
2018-12-17T03:21:54.166Z,98212.41
2018-12-17T03:24:22.653Z,98221.59
2018-12-17T03:26:51.302Z,98220.25
2018-12-17T03:29:19.802Z,98219.28
2018-12-17T03:33:12.677Z,98215.67
2018-12-17T03:35:41.168Z,98215.48
2018-12-17T03:38:09.654Z,98216.58
2018-12-17T03:40:38.088Z,98217.25
2018-12-17T03:43:06.614Z,98219.07
2018-12-17T03:45:35.080Z,98225.97
2018-12-17T03:48:03.765Z,98227.45
2018-12-17T03:50:32.244Z,98229.84
2018-12-17T03:53:00.733Z,98227.87
2018-12-17T03:55:29.173Z,98231.29
2018-12-17T03:57:57.664Z,98222.66
2018-12-17T04:00:26.128Z,98225.30
2018-12-17T04:02:54.656Z,98227.95
2018-12-17T04:05:23.183Z,98227.34
2018-12-17T04:07:51.663Z,98231.78
2018-12-17T04:10:20.138Z,98225.56
2018-12-17T04:12:48.979Z,98228.64
2018-12-17T04:15:17.514Z,98230.13
2018-12-17T04:17:45.965Z,98231.51
2018-12-17T04:20:14.399Z,98245.32
2018-12-17T04:22:42.902Z,98243.02
2018-12-17T04:25:11.394Z,98252.73
2018-12-17T04:27:39.885Z,98252.39
2018-12-17T04:30:08.605Z,98259.93
2018-12-17T04:32:37.123Z,98259.73
2018-12-17T04:35:06.077Z,98266.92
2018-12-17T04:37:34.590Z,98264.50
2018-12-17T04:40:03.181Z,98253.09
2018-12-17T04:42:31.668Z,98262.11
2018-12-17T04:45:00.112Z,98262.94
2018-12-17T04:47:28.630Z,98264.57
2018-12-17T04:49:57.088Z,98272.88
2018-12-17T04:52:25.582Z,98274.34
2018-12-17T04:54:54.139Z,98282.05
2018-12-17T04:57:22.621Z,98277.60
2018-12-17T04:59:51.108Z,98282.02
2018-12-17T05:02:19.667Z,98284.71
2018-12-17T05:04:48.223Z,98286.22
2018-12-17T05:07:16.704Z,98287.21
2018-12-17T05:09:45.164Z,98286.89
2018-12-17T05:12:13.643Z,98285.77
2018-12-17T05:14:42.116Z,98292.05
2018-12-17T05:17:10.620Z,98293.95
2018-12-17T05:19:39.064Z,98296.03
2018-12-17T05:22:07.563Z,98300.16
2018-12-17T05:24:36.017Z,98298.81
2018-12-17T05:27:04.521Z,98295.84
2018-12-17T05:29:32.999Z,98308.63
2018-12-17T05:32:01.501Z,98314.30
2018-12-17T05:34:29.997Z,98327.48
2018-12-17T05:36:58.479Z,98327.17
2018-12-17T05:39:26.968Z,98328.20
2018-12-17T05:41:55.467Z,98331.62
2018-12-17T05:44:23.937Z,98335.75
2018-12-17T05:46:52.445Z,98331.25
2018-12-17T05:49:20.897Z,98342.34
2018-12-17T05:51:49.434Z,98344.53
2018-12-17T05:54:17.876Z,98347.95
2018-12-17T05:56:46.353Z,98349.73
2018-12-17T05:59:14.908Z,98351.56
2018-12-17T06:01:43.444Z,98364.04
2018-12-17T06:04:11.957Z,98376.66
2018-12-17T06:06:40.446Z,98371.42
2018-12-17T06:09:12.246Z,98378.45
2018-12-17T06:11:40.984Z,98386.64
2018-12-17T06:14:09.478Z,98389.58
2018-12-17T06:16:37.945Z,98405.67
2018-12-17T06:19:06.468Z,98402.53
2018-12-17T06:21:34.938Z,98404.78
2018-12-17T06:24:03.580Z,98407.72
2018-12-17T06:26:32.018Z,98414.44
2018-12-17T06:29:00.716Z,98416.27
2018-12-17T06:31:29.873Z,98422.67
2018-12-17T06:33:58.450Z,98418.94
2018-12-17T06:36:26.963Z,98434.67
2018-12-17T06:38:56.282Z,98435.98
2018-12-17T06:41:24.924Z,98438.80
2018-12-17T06:43:53.408Z,98444.89
2018-12-17T06:46:21.858Z,98443.91
2018-12-17T06:48:50.342Z,98448.61
2018-12-17T06:51:21.135Z,98453.34
2018-12-17T06:53:49.654Z,98454.18
2018-12-17T06:56:18.100Z,98471.91
2018-12-17T06:58:46.552Z,98470.06
2018-12-17T07:01:15.007Z,98471.70
2018-12-17T07:03:43.478Z,98481.91
2018-12-17T07:06:11.912Z,98485.48
2018-12-17T07:08:40.349Z,98487.95
2018-12-17T07:11:08.779Z,98487.17
2018-12-17T07:13:37.275Z,98493.20
2018-12-17T07:16:05.844Z,98503.05
2018-12-17T07:18:34.324Z,98504.35
2018-12-17T07:21:02.764Z,98509.59
2018-12-17T07:23:31.252Z,98510.75
2018-12-17T07:25:59.708Z,98519.56
2018-12-17T07:28:28.176Z,98514.64
2018-12-17T07:30:56.621Z,98523.19
2018-12-17T07:33:25.136Z,98535.31
2018-12-17T07:35:53.593Z,98539.49
2018-12-17T07:38:22.076Z,98546.91
2018-12-17T07:40:50.510Z,98547.13
2018-12-17T07:43:19.010Z,98558.03
2018-12-17T07:45:47.450Z,98550.73
2018-12-17T07:48:15.923Z,98563.55
2018-12-17T07:50:44.674Z,98563.28
2018-12-17T07:53:13.166Z,98567.91
2018-12-17T07:55:41.635Z,98570.89
2018-12-17T07:58:10.137Z,98572.11
2018-12-17T08:00:38.667Z,98578.23
2018-12-17T08:03:07.158Z,98585.84
2018-12-17T08:05:35.601Z,98581.31
2018-12-17T08:08:04.127Z,98585.98
2018-12-17T08:10:32.601Z,98590.63
2018-12-17T08:13:01.237Z,98591.31
2018-12-17T08:15:29.744Z,98599.20
2018-12-17T08:18:09.485Z,98598.31
2018-12-17T08:20:38.000Z,98609.14
2018-12-17T08:23:06.568Z,98612.09
2018-12-17T08:25:35.051Z,98607.35
2018-12-17T08:28:03.557Z,98614.16
2018-12-17T08:30:32.008Z,98622.75
2018-12-17T08:33:00.489Z,98621.79
2018-12-17T08:35:29.000Z,98625.09
2018-12-17T08:37:57.553Z,98628.78
2018-12-17T08:40:26.001Z,98639.45
2018-12-17T08:42:54.491Z,98634.78
2018-12-17T08:45:22.948Z,98635.77
2018-12-17T08:47:51.516Z,98635.77
2018-12-17T08:50:20.121Z,98638.42
2018-12-17T08:52:48.636Z,98639.13
2018-12-17T08:55:17.095Z,98639.58
2018-12-17T08:57:45.551Z,98650.88
2018-12-17T09:00:14.278Z,98648.38
2018-12-17T09:02:42.753Z,98661.16
2018-12-17T09:05:11.379Z,98655.52
2018-12-17T09:07:39.854Z,98661.97
2018-12-17T09:10:08.927Z,98663.92
2018-12-17T09:12:37.365Z,98664.95
2018-12-17T09:15:06.225Z,98661.64
2018-12-17T09:17:34.701Z,98665.78
2018-12-17T09:20:03.363Z,98662.28
2018-12-17T09:22:31.844Z,98670.02
2018-12-17T09:25:00.427Z,98672.33
2018-12-17T09:27:29.023Z,98670.61
2018-12-17T09:29:57.492Z,98672.36
2018-12-17T09:32:26.099Z,98675.98
2018-12-17T09:34:54.610Z,98678.97
2018-12-17T09:37:23.068Z,98675.02
2018-12-17T09:39:51.582Z,98671.28
2018-12-17T09:42:20.035Z,98676.02
2018-12-17T09:44:48.530Z,98678.48
2018-12-17T09:47:17.023Z,98671.41
2018-12-17T09:49:45.502Z,98675.86
2018-12-17T09:52:13.965Z,98681.55
2018-12-17T09:54:42.430Z,98684.53
2018-12-17T09:57:11.007Z,98677.81
2018-12-17T09:59:39.544Z,98678.48
2018-12-17T10:02:07.995Z,98681.87
2018-12-17T10:04:36.458Z,98683.86
2018-12-17T10:07:04.923Z,98683.50
2018-12-17T10:09:33.392Z,98685.38
2018-12-17T10:12:01.874Z,98680.84
2018-12-17T10:14:30.427Z,98686.82
2018-12-17T10:16:58.913Z,98689.02
2018-12-17T10:19:27.456Z,98691.95
2018-12-17T10:21:55.895Z,98686.94
2018-12-17T10:24:24.367Z,98683.00
2018-12-17T10:26:52.816Z,98684.70
2018-12-17T10:29:21.312Z,98689.71
2018-12-17T10:31:49.759Z,98686.02
2018-12-17T10:34:18.271Z,98686.34
2018-12-17T10:36:46.811Z,98693.05
2018-12-17T10:39:15.306Z,98687.02
2018-12-17T10:41:43.760Z,98682.61
2018-12-17T10:44:12.226Z,98683.28
2018-12-17T10:46:40.713Z,98684.25
2018-12-17T10:49:09.147Z,98694.39
2018-12-17T10:51:37.698Z,98692.49
2018-12-17T10:54:06.206Z,98700.33
2018-12-17T10:56:34.832Z,98700.20
2018-12-17T10:59:03.336Z,98696.22
2018-12-17T11:01:37.397Z,98695.93
2018-12-17T11:04:13.636Z,98690.89
2018-12-17T11:06:42.151Z,98691.80
2018-12-17T11:09:10.927Z,98692.03
2018-12-17T11:11:39.429Z,98695.63
2018-12-17T11:14:07.926Z,98695.84
2018-12-17T11:16:36.477Z,98691.06
2018-12-17T11:19:04.932Z,98698.67
2018-12-17T11:21:33.531Z,98696.21
2018-12-17T11:24:01.990Z,98704.27
2018-12-17T11:26:30.470Z,98701.38
2018-12-17T11:28:58.944Z,98702.20
2018-12-17T11:31:28.314Z,98709.66
2018-12-17T11:33:56.792Z,98701.91
2018-12-17T11:36:25.336Z,98711.44
2018-12-17T11:38:53.785Z,98708.77
2018-12-17T11:41:22.284Z,98717.28
2018-12-17T11:43:50.719Z,98707.27
2018-12-17T11:46:19.225Z,98711.47
2018-12-17T11:48:48.044Z,98714.39
2018-12-17T11:51:16.529Z,98722.16
2018-12-17T11:53:44.988Z,98727.72
2018-12-17T11:56:13.518Z,98725.99
2018-12-17T11:58:41.986Z,98725.61
2018-12-17T12:01:11.411Z,98730.34
2018-12-17T12:03:42.298Z,98729.27
2018-12-17T12:06:14.145Z,98734.23
2018-12-17T12:08:41.271Z,98731.28
2018-12-17T12:11:09.736Z,98726.11
2018-12-17T12:13:38.246Z,98726.52
2018-12-17T12:16:06.706Z,98718.18
2018-12-17T12:18:35.172Z,98727.59
2018-12-17T12:21:03.641Z,98731.41
2018-12-17T12:23:32.124Z,98744.05
2018-12-17T12:26:00.602Z,98753.06
2018-12-17T12:28:29.099Z,98749.59
2018-12-17T12:31:00.513Z,98755.95
2018-12-17T12:33:28.069Z,98748.77
2018-12-17T12:35:56.511Z,98750.37
2018-12-17T12:38:25.420Z,98747.80
2018-12-17T12:40:53.911Z,98756.09
2018-12-17T12:43:22.408Z,98758.37
2018-12-17T12:45:50.860Z,98764.34
2018-12-17T12:48:19.339Z,98771.19
2018-12-17T12:50:47.775Z,98774.69
2018-12-17T12:53:16.372Z,98773.42
2018-12-17T12:55:44.894Z,98776.70
2018-12-17T12:59:37.866Z,98778.52
2018-12-17T13:02:06.410Z,98785.09
2018-12-17T13:04:34.915Z,98783.50
2018-12-17T13:07:03.377Z,98781.23
2018-12-17T13:09:31.906Z,98778.61
2018-12-17T13:12:00.380Z,98770.84
2018-12-17T13:14:28.910Z,98779.56
2018-12-17T13:16:57.376Z,98782.19
2018-12-17T13:19:25.851Z,98779.88
2018-12-17T13:21:54.299Z,98794.83
2018-12-17T13:24:22.773Z,98786.93
2018-12-17T13:26:51.244Z,98789.63
2018-12-17T13:29:19.727Z,98801.94
2018-12-17T13:31:48.227Z,98809.61
2018-12-17T13:34:16.708Z,98804.23
2018-12-17T13:36:45.127Z,98798.38
2018-12-17T13:39:13.620Z,98809.38
2018-12-17T13:41:42.317Z,98808.38
2018-12-17T13:44:10.891Z,98802.55
2018-12-17T13:46:39.340Z,98805.08
2018-12-17T13:49:07.950Z,98807.34
2018-12-17T13:51:38.412Z,98807.09
2018-12-17T13:54:07.092Z,98797.99
2018-12-17T13:56:35.523Z,98808.56
2018-12-17T13:59:04.207Z,98808.72
2018-12-17T14:01:33.705Z,98820.59
2018-12-17T14:04:02.301Z,98818.97
2018-12-17T14:06:30.880Z,98816.19
2018-12-17T14:08:59.335Z,98815.48
2018-12-17T14:11:27.849Z,98830.05
2018-12-17T14:13:56.335Z,98828.42
2018-12-17T14:16:30.064Z,98835.05
2018-12-17T14:19:03.704Z,98838.45
2018-12-17T14:22:07.027Z,98849.75
2018-12-17T14:24:35.628Z,98842.59
2018-12-17T14:27:04.220Z,98848.13
2018-12-17T14:29:32.723Z,98849.59
2018-12-17T14:32:01.201Z,98850.61
2018-12-17T14:34:29.703Z,98859.38
2018-12-17T14:36:58.175Z,98854.82
2018-12-17T14:39:26.627Z,98856.77
2018-12-17T14:41:55.121Z,98858.59
2018-12-17T14:44:28.794Z,98862.38
2018-12-17T14:46:59.699Z,98867.59
2018-12-17T14:49:28.332Z,98877.54
2018-12-17T14:51:56.832Z,98880.32
2018-12-17T14:54:25.399Z,98875.42
2018-12-17T14:56:53.897Z,98878.32
2018-12-17T14:59:22.365Z,98877.89
2018-12-17T15:01:50.870Z,98881.31
2018-12-17T15:04:20.348Z,98880.30
2018-12-17T15:06:48.842Z,98872.27
2018-12-17T15:09:17.303Z,98873.80
2018-12-17T15:11:45.772Z,98880.22
2018-12-17T15:14:14.275Z,98880.63
2018-12-17T15:16:42.755Z,98889.98
2018-12-17T15:19:11.209Z,98896.85
2018-12-17T15:24:32.890Z,98902.23
2018-12-17T15:27:01.348Z,98912.36
2018-12-17T15:29:29.762Z,98910.64
2018-12-17T15:31:58.209Z,98917.42
2018-12-17T15:34:26.762Z,98912.80
2018-12-17T15:36:55.301Z,98943.25
2018-12-17T15:39:23.960Z,98938.34
2018-12-17T15:41:52.642Z,98942.58
2018-12-17T15:44:21.091Z,98944.67
2018-12-17T15:46:49.547Z,98953.89
2018-12-17T15:49:17.951Z,98950.48
2018-12-17T15:51:46.873Z,98956.67
2018-12-17T15:57:07.760Z,98966.81
2018-12-17T15:59:36.821Z,98973.23
2018-12-17T16:02:05.450Z,98970.98
2018-12-17T16:04:33.941Z,98968.96
2018-12-17T16:07:02.401Z,98986.34
2018-12-17T16:09:30.837Z,98990.62
2018-12-17T16:11:59.286Z,98981.57
2018-12-17T16:14:27.773Z,98978.65
2018-12-17T16:16:56.248Z,98982.44
2018-12-17T16:19:24.679Z,98991.58
2018-12-17T16:21:53.240Z,98981.84
2018-12-17T16:24:21.678Z,98978.97
2018-12-17T16:26:50.238Z,98979.81
2018-12-17T16:29:18.706Z,98986.53
2018-12-17T16:31:47.329Z,98988.23
2018-12-17T16:34:15.760Z,98976.82
2018-12-17T16:36:44.500Z,98985.21
2018-12-17T16:39:13.042Z,98981.01
2018-12-17T16:41:41.499Z,98988.33
2018-12-17T16:44:09.932Z,98987.34
2018-12-17T16:46:40.568Z,98985.07
2018-12-17T16:49:09.215Z,98986.53
2018-12-17T16:51:37.732Z,99006.23
2018-12-17T16:54:06.172Z,99001.02
2018-12-17T16:56:34.602Z,99020.33
2018-12-17T16:59:03.083Z,99018.06
2018-12-17T17:01:31.630Z,99026.97
2018-12-17T17:04:00.107Z,99017.77
2018-12-17T17:06:28.648Z,99016.14
2018-12-17T17:08:58.852Z,99027.24
2018-12-17T17:11:27.767Z,99030.28
2018-12-17T17:13:56.278Z,99033.27
2018-12-17T17:16:24.765Z,99028.42
2018-12-17T17:18:53.234Z,99036.45
2018-12-17T17:21:21.869Z,99042.73
2018-12-17T17:23:50.374Z,99042.46
2018-12-17T17:26:18.835Z,99052.38
2018-12-17T17:28:47.429Z,99051.94
2018-12-17T17:31:15.987Z,99053.41
2018-12-17T17:33:44.480Z,99053.25
2018-12-17T17:36:12.938Z,99056.87
2018-12-17T17:38:41.419Z,99064.19
2018-12-17T17:41:09.911Z,99062.77
2018-12-17T17:43:38.484Z,99071.08
2018-12-17T17:46:06.921Z,99074.48
2018-12-17T17:48:35.572Z,99076.20
2018-12-17T17:51:04.168Z,99073.03
2018-12-17T17:53:32.661Z,99074.97
2018-12-17T17:56:01.108Z,99076.78
2018-12-17T17:58:29.824Z,99074.09
2018-12-17T18:00:58.387Z,99082.27
2018-12-17T18:03:26.863Z,99077.20
2018-12-17T18:05:55.349Z,99077.89
2018-12-17T18:08:23.895Z,99085.91
2018-12-17T18:10:52.343Z,99086.09
2018-12-17T18:13:20.847Z,99082.52
2018-12-17T18:15:49.310Z,99085.69
2018-12-17T18:18:17.792Z,99090.15
2018-12-17T18:20:46.239Z,99089.05
2018-12-17T18:23:14.799Z,99098.03
2018-12-17T18:25:43.260Z,99096.31
2018-12-17T18:28:12.787Z,99103.17
2018-12-17T18:30:41.293Z,99103.79
2018-12-17T18:33:09.821Z,99099.85
2018-12-17T18:35:38.275Z,99103.86
2018-12-17T18:38:06.776Z,99106.70
2018-12-17T18:40:35.342Z,99106.05
2018-12-17T18:43:04.024Z,99111.81
2018-12-17T18:45:33.098Z,99110.14
2018-12-17T18:48:01.577Z,99119.28
2018-12-17T18:50:30.298Z,99123.77
2018-12-17T18:52:59.273Z,99120.78
2018-12-17T18:55:27.773Z,99122.79
2018-12-17T18:57:56.256Z,99125.89
2018-12-17T19:00:24.975Z,99134.28
2018-12-17T19:02:53.558Z,99136.39
2018-12-17T19:05:22.091Z,99137.56
2018-12-17T19:07:50.545Z,99141.95
2018-12-17T19:10:19.097Z,99148.55
2018-12-17T19:12:47.638Z,99138.56
2018-12-17T19:15:16.108Z,99146.91
2018-12-17T19:17:44.732Z,99147.39
2018-12-17T19:20:13.313Z,99150.16
2018-12-17T19:22:41.865Z,99151.04
2018-12-17T19:25:10.399Z,99158.67
2018-12-17T19:27:38.851Z,99155.34
2018-12-17T19:30:08.309Z,99162.31
2018-12-17T19:32:40.231Z,99160.81
2018-12-17T19:35:07.370Z,99162.41
2018-12-17T19:37:35.819Z,99162.73
2018-12-17T19:40:05.026Z,99159.35
2018-12-17T19:42:33.465Z,99168.06
2018-12-17T19:45:01.956Z,99170.84
2018-12-17T19:47:30.399Z,99173.09
2018-12-17T19:49:58.892Z,99182.09
2018-12-17T19:52:27.337Z,99182.09
2018-12-17T19:54:55.957Z,99182.56
2018-12-17T19:57:24.435Z,99185.41
2018-12-17T19:59:52.924Z,99176.98
2018-12-17T20:02:21.383Z,99178.63
2018-12-17T20:04:49.877Z,99183.54
2018-12-17T20:07:18.365Z,99186.64
2018-12-17T20:09:46.863Z,99186.45
2018-12-17T20:12:15.336Z,99188.24
2018-12-17T20:14:43.841Z,99192.59
2018-12-17T20:17:12.402Z,99187.70
2018-12-17T20:19:40.897Z,99185.69
2018-12-17T20:22:09.364Z,99193.35
2018-12-17T20:24:37.869Z,99197.66
2018-12-17T20:27:06.328Z,99192.73
2018-12-17T20:29:34.833Z,99189.78
2018-12-17T20:32:03.492Z,99189.08
2018-12-17T20:34:31.973Z,99195.14
2018-12-17T20:37:00.428Z,99201.78
2018-12-17T20:39:28.956Z,99211.96
2018-12-17T20:41:57.551Z,99216.05
2018-12-17T20:44:26.053Z,99224.46
2018-12-17T20:46:54.602Z,99222.78
2018-12-17T20:49:23.093Z,99222.45
2018-12-17T20:51:51.531Z,99219.33
2018-12-17T20:54:20.068Z,99219.74
2018-12-17T20:56:48.517Z,99223.27
2018-12-17T20:59:17.079Z,99223.02
2018-12-17T21:01:45.559Z,99223.91
2018-12-17T21:04:14.052Z,99220.30
2018-12-17T21:06:42.491Z,99215.19
2018-12-17T21:09:10.952Z,99218.02
2018-12-17T21:11:39.399Z,99219.80
2018-12-17T21:14:07.892Z,99220.64
2018-12-17T21:16:36.315Z,99221.25
2018-12-17T21:19:04.829Z,99220.92
2018-12-17T21:21:33.276Z,99216.09
2018-12-17T21:24:01.776Z,99218.91
2018-12-17T21:26:30.311Z,99226.87
2018-12-17T21:28:58.791Z,99235.36
2018-12-17T21:31:27.308Z,99246.14
2018-12-17T21:33:55.823Z,99249.47
2018-12-17T21:36:24.271Z,99249.10
2018-12-17T21:38:52.789Z,99250.98
2018-12-17T21:41:21.227Z,99245.25
2018-12-17T21:43:49.679Z,99241.78
2018-12-17T21:46:18.151Z,99252.84
2018-12-17T21:48:46.658Z,99252.34
2018-12-17T21:51:15.092Z,99255.11
2018-12-17T21:53:43.547Z,99263.34
2018-12-17T21:56:12.033Z,99269.83
2018-12-17T21:58:40.507Z,99271.56
2018-12-17T22:01:08.979Z,99275.11
2018-12-17T22:03:37.475Z,99280.89
2018-12-17T22:06:05.941Z,99278.41
2018-12-17T22:08:34.390Z,99293.83
2018-12-17T22:11:02.874Z,99287.46
2018-12-17T22:13:31.355Z,99292.94
2018-12-17T22:15:59.834Z,99288.25
2018-12-17T22:18:28.360Z,99285.48
2018-12-17T22:20:56.835Z,99283.83
2018-12-17T22:23:25.317Z,99285.84
2018-12-17T22:25:53.851Z,99289.28
2018-12-17T22:28:22.306Z,99288.34
2018-12-17T22:30:50.819Z,99291.72
2018-12-17T22:33:19.979Z,99298.42
2018-12-17T22:35:48.692Z,99288.84
2018-12-17T22:38:17.143Z,99298.22
2018-12-17T22:40:45.918Z,99295.20
2018-12-17T22:43:14.441Z,99287.72
2018-12-17T22:45:42.933Z,99285.37
2018-12-17T22:48:11.368Z,99283.45
2018-12-17T22:50:39.829Z,99273.08
2018-12-17T22:53:08.275Z,99276.70
2018-12-17T22:55:36.738Z,99278.91
2018-12-17T22:58:05.196Z,99284.53
2018-12-17T23:00:33.787Z,99279.70
2018-12-17T23:03:02.238Z,99286.21
2018-12-17T23:05:30.753Z,99288.75
2018-12-17T23:07:59.198Z,99286.06
2018-12-17T23:10:44.670Z,99282.34
2018-12-17T23:13:24.371Z,99283.38
2018-12-17T23:16:04.130Z,99274.38
2018-12-17T23:18:31.515Z,99286.91
2018-12-17T23:21:00.228Z,99285.79
2018-12-17T23:23:29.054Z,99293.75
2018-12-17T23:25:57.645Z,99292.52
2018-12-17T23:28:26.212Z,99291.34
2018-12-17T23:30:54.675Z,99291.73
2018-12-17T23:33:23.244Z,99293.27
2018-12-17T23:35:51.744Z,99288.84
2018-12-17T23:38:20.205Z,99290.77
2018-12-17T23:40:48.699Z,99285.86
2018-12-17T23:43:17.266Z,99285.78
2018-12-17T23:45:45.754Z,99281.23
2018-12-17T23:48:14.213Z,99281.56
2018-12-17T23:50:43.961Z,99277.98
2018-12-17T23:53:12.420Z,99280.48
2018-12-17T23:55:40.903Z,99283.72
2018-12-17T23:58:09.334Z,99282.27
